createdAt,value
2022-10-06T00:00:55.739Z,15.68
2022-10-06T00:01:55.722Z,15.67
2022-10-06T00:02:55.755Z,15.75
2022-10-06T00:03:55.730Z,15.70
2022-10-06T00:04:55.848Z,15.74
2022-10-06T00:05:55.891Z,15.67
2022-10-06T00:06:55.858Z,15.72
2022-10-06T00:07:55.794Z,15.72
2022-10-06T00:08:55.831Z,15.68
2022-10-06T00:09:55.883Z,15.76
2022-10-06T00:10:55.785Z,15.74
2022-10-06T00:11:55.834Z,15.78
2022-10-06T00:12:55.748Z,15.79
2022-10-06T00:13:55.881Z,15.89
2022-10-06T00:14:55.745Z,15.79
2022-10-06T00:15:55.992Z,15.88
2022-10-06T00:16:55.648Z,15.78
2022-10-06T00:17:55.890Z,15.79
2022-10-06T00:18:55.707Z,15.88
2022-10-06T00:19:56.059Z,15.94
2022-10-06T00:20:55.647Z,16.01
2022-10-06T00:21:55.624Z,16.18
2022-10-06T00:22:55.627Z,16.18
2022-10-06T00:23:55.592Z,16.23
2022-10-06T00:24:55.582Z,16.23
2022-10-06T00:25:55.582Z,16.22
2022-10-06T00:26:55.711Z,16.23
2022-10-06T00:27:55.686Z,16.30
2022-10-06T00:28:55.540Z,16.37
2022-10-06T00:29:55.516Z,16.53
2022-10-06T00:30:55.619Z,16.55
2022-10-06T00:31:55.566Z,16.58
2022-10-06T00:32:55.667Z,16.70
2022-10-06T00:33:55.680Z,16.88
2022-10-06T00:34:55.631Z,16.95
2022-10-06T00:35:55.624Z,16.90
2022-10-06T00:36:55.690Z,16.86
2022-10-06T00:37:55.611Z,16.83
2022-10-06T00:38:55.705Z,16.90
2022-10-06T00:39:55.583Z,16.98
2022-10-06T00:40:55.564Z,16.99
2022-10-06T00:41:55.538Z,16.96
2022-10-06T00:42:55.672Z,16.99
2022-10-06T00:43:55.554Z,17.04
2022-10-06T00:44:55.552Z,17.07
2022-10-06T00:45:55.537Z,17.04
2022-10-06T00:46:55.448Z,17.23
2022-10-06T00:47:55.764Z,17.14
2022-10-06T00:48:55.461Z,17.11
2022-10-06T00:49:55.523Z,17.07
2022-10-06T00:50:55.382Z,17.11
2022-10-06T00:51:55.444Z,17.23
2022-10-06T00:52:55.386Z,17.15
2022-10-06T00:53:55.419Z,17.14
2022-10-06T00:54:55.419Z,17.15
2022-10-06T00:55:55.465Z,17.15
2022-10-06T00:56:55.393Z,17.13
2022-10-06T00:57:55.502Z,17.22
2022-10-06T00:58:55.457Z,17.14
2022-10-06T00:59:55.503Z,17.20
2022-10-06T01:00:55.478Z,17.17
2022-10-06T01:01:55.500Z,17.15
2022-10-06T01:02:55.485Z,17.17
2022-10-06T01:03:55.414Z,17.18
2022-10-06T01:04:55.552Z,17.10
2022-10-06T01:05:55.415Z,17.18
2022-10-06T01:06:55.431Z,17.07
2022-10-06T01:07:55.438Z,17.08
2022-10-06T01:08:55.362Z,17.11
2022-10-06T01:09:55.296Z,17.25
2022-10-06T01:10:55.316Z,17.22
2022-10-06T01:11:55.296Z,17.08
2022-10-06T01:12:55.272Z,17.25
2022-10-06T01:13:55.336Z,17.18
2022-10-06T01:14:55.246Z,17.14
2022-10-06T01:15:56.341Z,17.22
2022-10-06T01:16:55.235Z,17.13
2022-10-06T01:17:55.337Z,17.13
2022-10-06T01:18:55.461Z,17.14
2022-10-06T01:19:55.284Z,17.07
2022-10-06T01:20:55.455Z,17.17
2022-10-06T01:21:55.244Z,17.07
2022-10-06T01:22:55.339Z,17.11
2022-10-06T01:23:55.257Z,16.99
2022-10-06T01:24:55.269Z,17.06
2022-10-06T01:25:55.235Z,16.92
2022-10-06T01:26:56.421Z,16.88
2022-10-06T01:27:55.298Z,16.92
2022-10-06T01:28:55.262Z,16.96
2022-10-06T01:29:55.159Z,16.89
2022-10-06T01:30:55.336Z,16.86
2022-10-06T01:31:55.202Z,16.96
2022-10-06T01:32:55.214Z,16.90
2022-10-06T01:33:55.199Z,16.88
2022-10-06T01:34:55.219Z,16.90
2022-10-06T01:35:55.180Z,16.89
2022-10-06T01:36:55.224Z,16.90
2022-10-06T01:37:55.138Z,16.86
2022-10-06T01:38:55.147Z,16.88
2022-10-06T01:39:55.052Z,16.71
2022-10-06T01:40:55.029Z,16.75
2022-10-06T01:41:55.182Z,16.75
2022-10-06T01:42:55.173Z,16.65
2022-10-06T01:43:55.287Z,16.68
2022-10-06T01:44:55.136Z,16.63
2022-10-06T01:45:55.186Z,16.63
2022-10-06T01:46:55.064Z,16.63
2022-10-06T01:47:55.081Z,16.52
2022-10-06T01:48:55.151Z,16.59
2022-10-06T01:49:55.133Z,16.55
2022-10-06T01:50:55.056Z,16.52
2022-10-06T01:51:55.048Z,16.48
2022-10-06T01:52:55.105Z,16.49
2022-10-06T01:53:55.141Z,16.50
2022-10-06T01:54:55.041Z,16.48
2022-10-06T01:55:55.034Z,16.33
2022-10-06T01:56:55.074Z,16.44
2022-10-06T01:57:54.955Z,16.35
2022-10-06T01:58:54.939Z,16.42
2022-10-06T01:59:55.973Z,16.33
2022-10-06T02:00:54.919Z,16.34
2022-10-06T02:01:54.963Z,16.31
2022-10-06T02:02:54.959Z,16.37
2022-10-06T02:03:55.001Z,16.26
2022-10-06T02:04:55.038Z,16.22
2022-10-06T02:05:55.011Z,16.26
2022-10-06T02:06:55.042Z,16.23
2022-10-06T02:07:55.006Z,16.27
2022-10-06T02:08:55.005Z,16.22
2022-10-06T02:09:54.922Z,16.22
2022-10-06T02:10:54.948Z,16.26
2022-10-06T02:11:54.902Z,16.12
2022-10-06T02:12:54.931Z,16.20
2022-10-06T02:13:54.897Z,16.14
2022-10-06T02:14:54.892Z,16.11
2022-10-06T02:15:54.953Z,16.06
2022-10-06T02:16:54.960Z,16.11
2022-10-06T02:17:54.863Z,16.18
2022-10-06T02:18:54.834Z,16.14
2022-10-06T02:19:54.934Z,16.03
2022-10-06T02:20:54.832Z,16.00
2022-10-06T02:21:54.839Z,15.97
2022-10-06T02:22:54.770Z,16.11
2022-10-06T02:23:54.766Z,16.09
2022-10-06T02:24:54.806Z,16.00
2022-10-06T02:25:54.856Z,16.12
2022-10-06T02:26:54.773Z,16.07
2022-10-06T02:27:54.761Z,15.97
2022-10-06T02:28:54.814Z,15.97
2022-10-06T02:29:54.688Z,15.84
2022-10-06T02:30:54.886Z,15.75
2022-10-06T02:31:54.741Z,15.56
2022-10-06T02:32:54.778Z,15.42
2022-10-06T02:33:54.746Z,15.33
2022-10-06T02:34:54.831Z,15.36
2022-10-06T02:35:54.749Z,15.28
2022-10-06T02:36:54.790Z,15.21
2022-10-06T02:37:54.733Z,15.12
2022-10-06T02:38:54.691Z,15.08
2022-10-06T02:39:55.731Z,15.17
2022-10-06T02:40:54.809Z,15.12
2022-10-06T02:41:54.715Z,15.06
2022-10-06T02:42:54.670Z,15.05
2022-10-06T02:43:54.696Z,15.06
2022-10-06T02:44:54.605Z,15.01
2022-10-06T02:45:54.590Z,15.02
2022-10-06T02:46:54.729Z,15.01
2022-10-06T02:47:54.603Z,15.06
2022-10-06T02:48:55.023Z,15.06
2022-10-06T02:49:54.576Z,15.03
2022-10-06T02:50:54.546Z,14.93
2022-10-06T02:51:54.585Z,14.99
2022-10-06T02:52:54.704Z,14.98
2022-10-06T02:53:54.624Z,14.91
2022-10-06T02:54:54.660Z,14.95
2022-10-06T02:55:54.598Z,14.91
2022-10-06T02:56:54.500Z,14.84
2022-10-06T02:57:54.591Z,14.91
2022-10-06T02:58:54.573Z,14.87
2022-10-06T02:59:54.659Z,14.88
2022-10-06T03:00:54.544Z,14.87
2022-10-06T03:01:54.651Z,14.84
2022-10-06T03:02:54.578Z,14.90
2022-10-06T03:03:54.515Z,14.93
2022-10-06T03:04:54.517Z,14.86
2022-10-06T03:05:54.585Z,14.86
2022-10-06T03:06:54.572Z,14.81
2022-10-06T03:07:54.544Z,14.78
2022-10-06T03:08:54.567Z,14.81
2022-10-06T03:09:54.561Z,14.68
2022-10-06T03:10:54.433Z,14.75
2022-10-06T03:11:54.380Z,14.61
2022-10-06T03:12:54.396Z,14.69
2022-10-06T03:13:54.410Z,14.65
2022-10-06T03:14:54.373Z,14.56
2022-10-06T03:15:54.429Z,14.67
2022-10-06T03:16:54.401Z,14.67
2022-10-06T03:17:54.563Z,14.69
2022-10-06T03:18:54.396Z,14.65
2022-10-06T03:19:54.366Z,14.61
2022-10-06T03:20:54.340Z,14.68
2022-10-06T03:21:54.359Z,14.65
2022-10-06T03:22:54.314Z,14.68
2022-10-06T03:23:54.437Z,14.67
2022-10-06T03:24:54.500Z,14.67
2022-10-06T03:25:54.417Z,14.67
2022-10-06T03:27:13.217Z,14.56
2022-10-06T03:27:54.280Z,14.62
2022-10-06T03:28:54.366Z,14.61
2022-10-06T03:29:54.338Z,14.71
2022-10-06T03:30:54.317Z,14.72
2022-10-06T03:31:54.316Z,14.62
2022-10-06T03:32:54.463Z,14.65
2022-10-06T03:33:54.282Z,14.64
2022-10-06T03:34:54.363Z,14.64
2022-10-06T03:35:54.319Z,14.60
2022-10-06T03:36:54.469Z,14.60
2022-10-06T03:37:54.312Z,14.64
2022-10-06T03:38:54.377Z,14.67
2022-10-06T03:39:54.206Z,14.67
2022-10-06T03:40:54.263Z,14.65
2022-10-06T03:41:54.268Z,14.60
2022-10-06T03:42:54.167Z,14.57
2022-10-06T03:43:54.198Z,14.62
2022-10-06T03:44:54.154Z,14.64
2022-10-06T03:45:54.154Z,14.61
2022-10-06T03:46:54.231Z,14.64
2022-10-06T03:47:54.170Z,14.62
2022-10-06T03:48:54.136Z,14.64
2022-10-06T03:49:54.109Z,14.54
2022-10-06T03:50:54.125Z,14.54
2022-10-06T03:51:54.072Z,14.57
2022-10-06T03:52:54.289Z,14.49
2022-10-06T03:53:54.663Z,14.50
2022-10-06T03:54:54.100Z,14.50
2022-10-06T03:55:54.306Z,14.47
2022-10-06T03:56:54.094Z,14.52
2022-10-06T03:57:54.038Z,14.43
2022-10-06T03:58:54.125Z,14.43
2022-10-06T03:59:54.232Z,14.46
2022-10-06T04:00:54.202Z,14.44
2022-10-06T04:01:54.136Z,14.37
2022-10-06T04:02:54.087Z,14.47
2022-10-06T04:03:54.093Z,14.52
2022-10-06T04:04:54.144Z,14.35
2022-10-06T04:05:54.023Z,14.32
2022-10-06T04:06:54.005Z,14.35
2022-10-06T04:07:53.992Z,14.28
2022-10-06T04:08:53.964Z,14.29
2022-10-06T04:09:53.957Z,14.27
2022-10-06T04:10:53.995Z,14.17
2022-10-06T04:11:53.945Z,14.17
2022-10-06T04:12:53.938Z,14.17
2022-10-06T04:13:53.941Z,14.10
2022-10-06T04:14:57.889Z,14.13
2022-10-06T04:15:56.014Z,14.06
2022-10-06T04:16:53.942Z,14.06
2022-10-06T04:17:54.009Z,14.07
2022-10-06T04:18:54.081Z,13.98
2022-10-06T04:19:53.913Z,13.91
2022-10-06T04:20:54.065Z,13.99
2022-10-06T04:21:54.029Z,13.91
2022-10-06T04:22:53.961Z,13.87
2022-10-06T04:23:53.948Z,13.89
2022-10-06T04:24:53.977Z,13.84
2022-10-06T04:25:56.036Z,13.76
2022-10-06T04:26:55.025Z,13.71
2022-10-06T04:27:53.908Z,13.65
2022-10-06T04:28:53.926Z,13.74
2022-10-06T04:29:53.934Z,13.59
2022-10-06T04:30:53.809Z,13.59
2022-10-06T04:31:53.831Z,13.58
2022-10-06T04:32:53.977Z,13.52
2022-10-06T04:33:53.809Z,13.54
2022-10-06T04:34:53.797Z,13.49
2022-10-06T04:35:53.869Z,13.56
2022-10-06T04:36:53.870Z,13.49
2022-10-06T04:37:53.852Z,13.43
2022-10-06T04:38:53.844Z,13.46
2022-10-06T04:39:53.870Z,13.51
2022-10-06T04:40:53.845Z,13.43
2022-10-06T04:41:53.932Z,13.44
2022-10-06T04:42:53.863Z,13.46
2022-10-06T04:43:53.867Z,13.41
2022-10-06T04:44:53.800Z,13.30
2022-10-06T04:45:53.854Z,13.32
2022-10-06T04:46:53.837Z,13.21
2022-10-06T04:47:53.698Z,13.21
2022-10-06T04:48:53.760Z,13.15
2022-10-06T04:49:53.722Z,13.07
2022-10-06T04:50:53.662Z,13.00
2022-10-06T04:51:53.739Z,12.95
2022-10-06T04:52:53.668Z,12.93
2022-10-06T04:53:53.776Z,13.00
2022-10-06T04:54:53.741Z,12.95
2022-10-06T04:55:53.621Z,12.88
2022-10-06T04:56:53.647Z,12.95
2022-10-06T04:57:53.763Z,12.95
2022-10-06T04:58:53.687Z,12.85
2022-10-06T04:59:54.006Z,12.87
2022-10-06T05:00:53.777Z,12.92
2022-10-06T05:01:53.678Z,12.89
2022-10-06T05:02:53.701Z,12.87
2022-10-06T05:03:53.678Z,12.89
2022-10-06T05:04:53.631Z,12.81
2022-10-06T05:05:53.670Z,12.70
2022-10-06T05:06:53.701Z,12.75
2022-10-06T05:07:53.571Z,12.71
2022-10-06T05:08:54.680Z,12.63
2022-10-06T05:09:53.668Z,12.64
2022-10-06T05:10:53.556Z,12.52
2022-10-06T05:11:53.523Z,12.52
2022-10-06T05:12:53.529Z,12.41
2022-10-06T05:13:53.621Z,12.45
2022-10-06T05:14:53.584Z,12.29
2022-10-06T05:15:53.620Z,12.31
2022-10-06T05:16:53.622Z,12.39
2022-10-06T05:17:53.586Z,12.09
2022-10-06T05:18:53.582Z,12.19
2022-10-06T05:19:53.504Z,12.30
2022-10-06T05:20:53.562Z,12.23
2022-10-06T05:21:53.574Z,12.26
2022-10-06T05:22:53.441Z,12.20
2022-10-06T05:23:53.460Z,12.26
2022-10-06T05:24:53.520Z,12.24
2022-10-06T05:25:53.473Z,12.26
2022-10-06T05:26:54.781Z,12.21
2022-10-06T05:27:53.543Z,12.23
2022-10-06T05:28:53.416Z,12.26
2022-10-06T05:29:53.603Z,12.23
2022-10-06T05:30:53.512Z,12.21
2022-10-06T05:31:53.477Z,12.13
2022-10-06T05:32:53.404Z,12.08
2022-10-06T05:33:53.390Z,12.05
2022-10-06T05:34:53.369Z,12.01
2022-10-06T05:35:53.436Z,12.02
2022-10-06T05:36:53.388Z,12.05
2022-10-06T05:37:53.420Z,12.09
2022-10-06T05:38:53.398Z,12.06
2022-10-06T05:39:53.310Z,11.99
2022-10-06T05:40:53.314Z,12.05
2022-10-06T05:41:53.317Z,12.11
2022-10-06T05:42:53.436Z,11.99
2022-10-06T05:43:53.318Z,11.96
2022-10-06T05:44:53.381Z,11.89
2022-10-06T05:45:53.416Z,12.01
2022-10-06T05:46:53.328Z,11.87
2022-10-06T05:49:51.145Z,11.87
2022-10-06T15:44:55.243Z,17.53
2022-10-06T15:45:56.254Z,17.54
2022-10-06T15:46:56.388Z,17.53
2022-10-06T15:47:56.257Z,17.51
2022-10-06T15:48:56.244Z,17.62
2022-10-06T15:49:56.218Z,17.57
2022-10-06T15:50:56.299Z,17.53
2022-10-06T15:51:56.206Z,17.55
2022-10-06T15:52:56.546Z,17.50
2022-10-06T15:53:56.312Z,17.54
2022-10-06T15:54:56.394Z,17.53
2022-10-06T15:55:56.297Z,17.54
2022-10-06T15:56:56.156Z,17.48
2022-10-06T15:57:56.253Z,17.44
2022-10-06T15:58:56.328Z,17.47
2022-10-06T15:59:56.277Z,17.47
2022-10-06T16:00:56.263Z,17.55
2022-10-06T16:01:56.404Z,17.50
2022-10-06T16:02:56.336Z,17.54
2022-10-06T16:03:56.224Z,17.47
2022-10-06T16:04:56.207Z,17.51
2022-10-06T16:05:56.203Z,17.41
2022-10-06T16:06:56.111Z,17.38
2022-10-06T16:07:56.081Z,17.35
2022-10-06T16:08:56.078Z,17.32
2022-10-06T16:09:56.314Z,17.23
2022-10-06T16:10:56.062Z,17.22
2022-10-06T16:11:56.061Z,17.14
2022-10-06T16:12:56.036Z,17.25
2022-10-06T16:13:56.245Z,17.30
2022-10-06T16:14:56.142Z,17.25
2022-10-06T16:15:56.197Z,17.26
2022-10-06T16:16:56.134Z,17.22
2022-10-06T16:17:56.127Z,17.18
2022-10-06T16:18:56.131Z,17.07
2022-10-06T16:19:56.240Z,17.13
2022-10-06T16:20:56.134Z,17.03
2022-10-06T16:21:58.970Z,17.06
2022-10-06T16:22:57.064Z,17.00
2022-10-06T16:23:56.185Z,17.13
2022-10-06T16:24:56.074Z,16.99
2022-10-06T16:25:56.054Z,16.93
2022-10-06T16:26:55.939Z,16.95
2022-10-06T16:27:56.057Z,16.85
2022-10-06T16:28:56.032Z,16.93
2022-10-06T16:29:56.086Z,16.88
2022-10-06T16:30:56.121Z,16.95
2022-10-06T16:31:56.111Z,16.92
2022-10-06T16:32:56.036Z,17.03
2022-10-06T16:33:55.992Z,16.93
2022-10-06T16:34:55.964Z,16.95
2022-10-06T16:35:56.028Z,16.99
2022-10-06T16:36:56.030Z,17.07
2022-10-06T16:37:55.981Z,16.98
2022-10-06T16:38:55.957Z,16.92
2022-10-06T16:39:55.964Z,16.75
2022-10-06T16:40:55.994Z,16.55
2022-10-06T16:41:56.087Z,16.42
2022-10-06T16:42:55.845Z,16.25
2022-10-06T16:43:55.928Z,16.22
2022-10-06T16:44:55.870Z,16.23
2022-10-06T16:45:59.748Z,16.12
2022-10-06T16:46:57.902Z,15.99
2022-10-06T16:47:55.773Z,15.99
2022-10-06T16:48:55.971Z,15.85
2022-10-06T16:49:55.898Z,15.81
2022-10-06T16:50:55.889Z,15.74
2022-10-06T16:51:55.902Z,15.66
2022-10-06T16:52:55.909Z,15.63
2022-10-06T16:53:55.858Z,15.45
2022-10-06T16:54:55.819Z,15.35
2022-10-06T16:55:55.804Z,15.38
2022-10-06T16:56:55.720Z,15.41
2022-10-06T16:57:56.048Z,15.19
2022-10-06T16:58:55.832Z,15.23
2022-10-06T16:59:55.801Z,15.24
2022-10-06T17:00:55.874Z,14.98
2022-10-06T17:01:55.815Z,15.01
2022-10-06T17:02:55.829Z,14.88
2022-10-06T17:03:55.775Z,14.69
2022-10-06T17:04:55.666Z,14.71
2022-10-06T17:05:55.736Z,14.61
2022-10-06T17:06:55.749Z,14.65
2022-10-06T17:07:59.132Z,14.56
2022-10-06T17:08:56.722Z,14.60
2022-10-06T17:10:18.457Z,14.60
2022-10-06T17:10:57.700Z,14.67
2022-10-06T17:11:55.713Z,14.67
2022-10-06T17:12:55.718Z,14.60
2022-10-06T17:13:55.754Z,14.39
2022-10-06T17:14:55.744Z,14.39
2022-10-06T17:15:55.741Z,14.37
2022-10-06T17:16:55.699Z,14.31
2022-10-06T17:17:55.670Z,14.20
2022-10-06T17:18:55.700Z,14.29
2022-10-06T17:19:55.742Z,14.09
2022-10-06T17:20:55.663Z,13.89
2022-10-06T17:21:59.050Z,13.54
2022-10-06T17:22:56.538Z,13.51
2022-10-06T17:23:55.637Z,13.62
2022-10-06T17:24:55.671Z,13.62
2022-10-06T17:25:55.650Z,13.71
2022-10-06T17:26:55.656Z,13.71
2022-10-06T17:27:55.684Z,13.67
2022-10-06T17:28:55.709Z,13.70
2022-10-06T17:29:55.611Z,13.91
2022-10-06T17:30:55.808Z,13.79
2022-10-06T17:31:55.655Z,13.74
2022-10-06T17:32:55.614Z,13.76
2022-10-06T17:33:55.690Z,13.62
2022-10-06T17:34:55.617Z,13.58
2022-10-06T17:35:55.814Z,13.51
2022-10-06T17:36:55.785Z,13.55
2022-10-06T17:37:55.446Z,13.44
2022-10-06T17:38:55.726Z,13.52
2022-10-06T17:39:55.523Z,13.41
2022-10-06T17:40:55.454Z,13.41
2022-10-06T17:41:55.457Z,13.40
2022-10-06T17:42:55.445Z,13.27
2022-10-06T17:43:55.416Z,13.25
2022-10-06T17:44:55.469Z,13.17
2022-10-06T17:45:55.541Z,13.15
2022-10-06T17:46:55.668Z,13.14
2022-10-06T17:47:55.518Z,13.15
2022-10-06T17:48:55.466Z,12.97
2022-10-06T17:49:55.560Z,13.00
2022-10-06T17:50:55.453Z,12.96
2022-10-06T17:51:55.493Z,12.81
2022-10-06T17:52:55.500Z,12.67
2022-10-06T17:53:55.576Z,12.56
2022-10-06T17:54:55.434Z,12.69
2022-10-06T17:55:55.513Z,12.69
2022-10-06T17:56:55.489Z,12.75
2022-10-06T17:57:55.405Z,12.74
2022-10-06T17:58:55.324Z,12.82
2022-10-06T17:59:55.351Z,12.89
2022-10-06T18:00:55.418Z,12.89
2022-10-06T18:01:55.608Z,12.82
2022-10-06T18:02:55.325Z,12.88
2022-10-06T18:03:55.327Z,12.82
2022-10-06T18:04:55.305Z,12.70
2022-10-06T18:05:55.302Z,12.82
2022-10-06T18:06:55.884Z,12.87
2022-10-06T18:07:56.982Z,12.85
2022-10-06T18:08:55.412Z,12.82
2022-10-06T18:09:55.337Z,12.63
2022-10-06T18:10:59.128Z,12.70
2022-10-06T18:11:56.539Z,12.59
2022-10-06T18:12:55.578Z,12.45
2022-10-06T18:13:55.440Z,12.51
2022-10-06T18:14:55.535Z,12.51
2022-10-06T18:15:55.454Z,12.49
2022-10-06T18:16:56.223Z,12.42
2022-10-06T18:17:56.547Z,12.42
2022-10-06T18:18:55.328Z,12.48
2022-10-06T18:19:55.715Z,12.39
2022-10-06T18:20:55.390Z,12.39
2022-10-06T18:21:55.267Z,12.41
2022-10-06T18:22:55.562Z,12.45
2022-10-06T18:23:55.671Z,12.38
2022-10-06T18:24:59.193Z,12.31
2022-10-06T18:25:56.778Z,12.37
2022-10-06T18:26:55.256Z,12.31
2022-10-06T18:27:55.243Z,12.27
2022-10-06T18:28:55.295Z,12.26
2022-10-06T18:29:55.330Z,12.29
2022-10-06T18:30:55.251Z,12.24
2022-10-06T18:31:57.134Z,12.06
2022-10-06T18:35:29.845Z,12.12
2022-10-06T18:36:14.677Z,12.06
2022-10-06T18:36:57.498Z,12.12
2022-10-06T18:37:56.684Z,11.97
2022-10-06T18:38:56.274Z,11.97
2022-10-06T18:39:55.688Z,11.94
2022-10-06T18:40:55.300Z,11.94
2022-10-06T18:41:55.282Z,11.90
2022-10-06T18:42:55.137Z,11.96
2022-10-06T18:43:55.136Z,11.89
2022-10-06T18:44:55.134Z,11.78
2022-10-06T18:45:55.101Z,11.70
2022-10-06T18:46:55.048Z,11.44
2022-10-06T18:47:55.036Z,11.11
2022-10-06T18:48:55.070Z,10.81
2022-10-06T18:49:55.172Z,10.62
2022-10-06T18:50:55.097Z,10.59
2022-10-06T18:51:58.299Z,10.70
2022-10-06T18:52:55.954Z,10.78
2022-10-06T18:53:55.003Z,10.81
2022-10-06T18:54:54.891Z,11.02
2022-10-06T18:55:54.987Z,11.03
2022-10-06T18:56:54.941Z,11.01
2022-10-06T18:57:54.879Z,10.96
2022-10-06T18:58:54.973Z,11.02
2022-10-06T18:59:54.940Z,10.63
2022-10-06T19:00:55.302Z,10.51
2022-10-06T19:01:55.037Z,10.44
2022-10-06T19:02:55.005Z,10.36
2022-10-06T19:03:54.990Z,10.40
2022-10-06T19:04:55.032Z,10.43
2022-10-06T19:05:55.010Z,10.47
2022-10-06T19:06:54.937Z,10.56
2022-10-06T19:07:54.987Z,10.53
2022-10-06T19:08:54.915Z,10.42
2022-10-06T19:09:54.855Z,10.46
2022-10-06T19:10:54.792Z,10.46
2022-10-06T19:11:54.857Z,10.56
2022-10-06T19:12:54.876Z,10.55
2022-10-06T19:13:54.817Z,10.62
2022-10-06T19:14:55.904Z,10.68
2022-10-06T19:15:54.858Z,10.56
2022-10-06T19:16:54.916Z,10.58
2022-10-06T19:17:54.831Z,10.55
2022-10-06T19:18:54.871Z,10.56
2022-10-06T19:19:54.820Z,10.56
2022-10-06T19:20:54.892Z,10.60
2022-10-06T19:21:54.825Z,10.63
2022-10-06T19:22:54.849Z,10.73
2022-10-06T19:23:54.832Z,10.68
2022-10-06T19:24:54.747Z,10.63
2022-10-06T19:25:54.690Z,10.71
2022-10-06T19:26:54.801Z,10.59
2022-10-06T19:27:54.732Z,10.63
2022-10-06T19:28:54.917Z,10.62
2022-10-06T19:29:54.800Z,10.55
2022-10-06T19:30:54.906Z,10.66
2022-10-06T19:31:56.322Z,10.52
2022-10-06T19:32:54.761Z,10.60
2022-10-06T19:33:54.696Z,10.56
2022-10-06T19:34:54.706Z,10.44
2022-10-06T19:35:54.689Z,10.51
2022-10-06T19:36:54.733Z,10.52
2022-10-06T19:37:54.678Z,10.44
2022-10-06T19:38:54.833Z,10.56
2022-10-06T19:39:54.725Z,10.62
2022-10-06T19:40:54.604Z,10.59
2022-10-06T19:41:54.565Z,10.47
2022-10-06T19:42:54.769Z,10.36
2022-10-06T19:43:54.586Z,10.19
2022-10-06T19:44:54.666Z,10.18
2022-10-06T19:45:54.623Z,10.01
2022-10-06T19:46:54.640Z,10.04
2022-10-06T19:47:54.662Z,9.97
2022-10-06T19:48:54.876Z,10.04
2022-10-06T19:49:58.312Z,10.14
2022-10-06T19:50:56.716Z,10.18
2022-10-06T19:51:54.615Z,10.15
2022-10-06T19:52:54.592Z,10.17
2022-10-06T19:53:54.583Z,10.25
2022-10-06T19:54:54.711Z,10.18
2022-10-06T19:55:54.576Z,10.14
2022-10-06T19:56:55.011Z,10.15
2022-10-06T19:57:54.450Z,10.14
2022-10-06T19:58:54.481Z,10.06
2022-10-06T19:59:54.607Z,10.18
2022-10-06T20:00:54.423Z,10.04
2022-10-06T20:01:54.472Z,9.99
2022-10-06T20:02:54.448Z,10.03
2022-10-06T20:03:54.457Z,10.00
2022-10-06T20:04:54.428Z,9.89
2022-10-06T20:05:54.920Z,9.63
2022-10-06T20:06:54.485Z,9.35
2022-10-06T20:07:55.507Z,9.13
2022-10-06T20:08:54.451Z,9.02
2022-10-06T20:09:54.534Z,8.79
2022-10-06T20:10:54.487Z,8.68
2022-10-06T20:11:54.530Z,8.71
2022-10-06T20:12:54.457Z,8.58
2022-10-06T20:13:54.510Z,8.73
2022-10-06T20:14:54.441Z,8.84
2022-10-06T20:15:54.424Z,8.94
2022-10-06T20:16:54.590Z,9.02
2022-10-06T20:17:54.327Z,9.09
2022-10-06T20:18:54.318Z,8.94
2022-10-06T20:19:57.620Z,8.97
2022-10-06T20:20:55.365Z,8.90
2022-10-06T20:21:55.303Z,8.86
2022-10-06T20:22:54.332Z,8.83
2022-10-06T20:23:54.385Z,8.69
2022-10-06T20:24:54.359Z,8.57
2022-10-06T20:25:54.377Z,8.65
2022-10-06T20:26:54.528Z,8.60
2022-10-06T20:27:54.361Z,8.54
2022-10-06T20:28:54.352Z,8.47
2022-10-06T20:29:54.361Z,8.58
2022-10-06T20:30:54.456Z,8.65
2022-10-06T20:31:54.372Z,8.69
2022-10-06T20:32:54.392Z,8.71
2022-10-06T20:33:54.316Z,8.84
2022-10-06T20:34:54.215Z,8.87
2022-10-06T20:35:54.197Z,9.04
2022-10-06T20:36:56.235Z,8.94
2022-10-06T20:37:55.282Z,9.13
2022-10-06T20:38:54.177Z,9.09
2022-10-06T20:39:54.269Z,9.04
2022-10-06T20:40:54.310Z,8.91
2022-10-06T20:41:54.219Z,8.88
2022-10-06T20:42:54.268Z,8.91
2022-10-06T20:43:54.246Z,8.84
2022-10-06T20:44:54.203Z,8.81
2022-10-06T20:45:54.235Z,8.76
2022-10-06T20:46:54.197Z,8.86
2022-10-06T20:47:54.126Z,8.78
2022-10-06T20:48:54.229Z,8.79
2022-10-06T20:49:54.174Z,8.72
2022-10-06T20:50:54.083Z,8.69
2022-10-06T20:51:54.081Z,8.57
2022-10-06T20:52:54.086Z,8.58
2022-10-06T20:53:54.180Z,8.62
2022-10-06T20:54:54.156Z,8.55
2022-10-06T20:55:54.268Z,8.45
2022-10-06T20:56:54.087Z,8.47
2022-10-06T20:57:54.173Z,8.48
2022-10-06T20:58:54.174Z,8.47
2022-10-06T20:59:54.172Z,8.55
2022-10-06T21:00:54.113Z,8.58
2022-10-06T21:01:54.102Z,8.63
2022-10-06T21:02:54.128Z,8.65
2022-10-06T21:03:54.050Z,8.68
2022-10-06T21:04:54.102Z,8.66
2022-10-06T21:05:54.047Z,8.57
2022-10-06T21:06:54.055Z,8.47
2022-10-06T21:07:53.936Z,8.40
2022-10-06T21:08:53.957Z,8.26
2022-10-06T21:09:54.013Z,8.15
2022-10-06T21:10:54.088Z,8.18
2022-10-06T21:11:54.113Z,8.15
2022-10-06T21:12:54.003Z,8.20
2022-10-06T21:13:53.997Z,8.26
2022-10-06T21:14:54.073Z,8.22
2022-10-06T21:15:54.060Z,8.33
2022-10-06T21:16:54.022Z,8.30
2022-10-06T21:17:53.984Z,8.37
2022-10-06T21:18:54.018Z,8.33
2022-10-06T21:19:53.957Z,8.29
2022-10-06T21:20:54.152Z,8.22
2022-10-06T21:21:53.954Z,8.22
2022-10-06T21:22:53.932Z,8.12
2022-10-06T21:23:53.856Z,8.15
2022-10-06T21:24:53.836Z,8.02
2022-10-06T21:25:53.860Z,8.07
2022-10-06T21:26:53.950Z,8.14
2022-10-06T21:27:53.933Z,8.11
2022-10-06T21:28:53.926Z,8.07
2022-10-06T21:29:53.895Z,7.99
2022-10-06T21:30:53.939Z,7.92
2022-10-06T21:31:53.947Z,7.79
2022-10-06T21:32:53.863Z,7.89
2022-10-06T21:33:53.866Z,7.82
2022-10-06T21:34:53.845Z,7.87
2022-10-06T21:35:53.955Z,7.93
2022-10-06T21:36:53.832Z,7.90
2022-10-06T21:37:53.869Z,7.87
2022-10-06T21:38:53.838Z,7.81
2022-10-06T21:39:55.080Z,7.85
2022-10-06T21:40:53.718Z,7.93
2022-10-06T21:41:53.935Z,7.94
2022-10-06T21:42:53.739Z,7.94
2022-10-06T21:43:53.844Z,7.99
2022-10-06T21:44:53.804Z,7.96
2022-10-06T21:46:05.184Z,8.00
2022-10-06T21:46:55.734Z,7.93
2022-10-06T21:47:53.791Z,7.92
2022-10-06T21:48:53.740Z,7.74
2022-10-06T21:49:53.740Z,7.67
2022-10-06T21:50:53.867Z,7.49
2022-10-06T21:51:53.752Z,7.24
2022-10-06T21:52:53.886Z,7.27
2022-10-06T21:53:53.794Z,7.08
2022-10-06T21:54:53.625Z,6.99
2022-10-06T21:55:53.638Z,6.98
2022-10-06T21:56:53.722Z,6.95
2022-10-06T21:57:53.742Z,6.81
2022-10-06T21:58:53.732Z,6.87
2022-10-06T21:59:53.674Z,6.95
2022-10-06T22:00:57.923Z,7.07
2022-10-06T22:01:54.752Z,7.13
2022-10-06T22:02:53.733Z,7.23
2022-10-06T22:03:53.724Z,7.23
2022-10-06T22:04:53.692Z,7.07
2022-10-06T22:05:53.638Z,7.07
2022-10-06T22:06:53.661Z,7.12
2022-10-06T22:07:53.557Z,7.08
2022-10-06T22:08:53.564Z,7.22
2022-10-06T22:09:53.699Z,7.29
2022-10-06T22:10:53.509Z,7.29
2022-10-06T22:11:53.613Z,7.34
2022-10-06T22:12:53.601Z,7.38
2022-10-06T22:13:53.582Z,7.32
2022-10-06T22:14:53.701Z,7.27
2022-10-06T22:15:53.620Z,7.13
2022-10-06T22:16:53.574Z,6.95
2022-10-06T22:17:53.555Z,6.81
2022-10-06T22:18:53.563Z,6.84
2022-10-06T22:19:53.533Z,6.94
2022-10-06T22:20:53.571Z,7.04
2022-10-06T22:21:53.531Z,7.04
2022-10-06T22:22:53.522Z,7.08
2022-10-06T22:23:53.476Z,7.17
2022-10-06T22:24:53.413Z,7.26
2022-10-06T22:25:53.474Z,7.20
2022-10-06T22:26:53.416Z,7.32
2022-10-06T22:27:53.400Z,7.29
2022-10-06T22:28:53.399Z,7.34
2022-10-06T22:29:53.399Z,7.31
2022-10-06T22:30:53.414Z,7.35
2022-10-06T22:31:53.505Z,7.29
2022-10-06T22:32:53.372Z,7.29
2022-10-06T22:33:53.463Z,7.35
2022-10-06T22:34:53.439Z,7.35
2022-10-06T22:35:53.422Z,7.32
2022-10-06T22:36:53.453Z,7.31
2022-10-06T22:37:53.497Z,7.34
2022-10-06T22:38:53.405Z,7.37
2022-10-06T22:39:53.317Z,7.26
2022-10-06T22:40:53.414Z,7.13
2022-10-06T22:41:53.396Z,7.05
2022-10-06T22:42:53.497Z,6.98
2022-10-06T22:43:53.389Z,6.99
2022-10-06T22:44:53.267Z,6.86
2022-10-06T22:45:53.291Z,6.95
2022-10-06T22:46:53.456Z,6.90
2022-10-06T22:47:53.296Z,6.81
2022-10-06T22:48:53.255Z,6.91
2022-10-06T22:49:53.253Z,6.84
2022-10-06T22:50:53.243Z,6.97
2022-10-06T22:51:53.238Z,6.86
2022-10-06T22:52:53.397Z,6.86
2022-10-06T22:53:57.494Z,6.86
2022-10-06T22:54:54.276Z,6.91
2022-10-06T22:55:53.292Z,6.97
2022-10-06T22:56:53.199Z,6.87